createdAt,value
2018-11-21T00:00:13.989Z,60.43
2018-11-21T00:02:42.809Z,56.47
2018-11-21T00:05:11.632Z,55.17
2018-11-21T00:07:40.535Z,60.87
2018-11-21T00:10:10.752Z,49.10
2018-11-21T00:12:39.965Z,56.50
2018-11-21T00:15:10.118Z,64.07
2018-11-21T00:17:39.202Z,60.33
2018-11-21T00:20:09.861Z,59.90
2018-11-21T00:22:38.476Z,66.27
2018-11-21T00:25:07.084Z,53.17
2018-11-21T00:27:35.676Z,66.60
2018-11-21T00:30:04.470Z,53.57
2018-11-21T00:32:33.573Z,47.00
2018-11-21T00:35:02.091Z,70.13
2018-11-21T00:37:30.589Z,49.37
2018-11-21T00:39:59.066Z,44.93
2018-11-21T00:42:27.518Z,66.60
2018-11-21T00:44:56.182Z,57.57
2018-11-21T00:47:25.179Z,66.33
2018-11-21T00:49:54.001Z,71.07
2018-11-21T00:52:23.089Z,55.40
2018-11-21T00:54:52.059Z,78.60
2018-11-21T00:57:21.318Z,49.67
2018-11-21T00:59:49.826Z,71.00
2018-11-21T01:02:18.622Z,60.83
2018-11-21T01:04:47.464Z,66.60
2018-11-21T01:07:16.100Z,65.67
2018-11-21T01:09:44.586Z,52.80
2018-11-21T01:12:13.097Z,76.77
2018-11-21T01:14:41.845Z,50.43
2018-11-21T01:17:10.328Z,75.00
2018-11-21T01:19:39.013Z,75.13
2018-11-21T01:22:07.484Z,76.53
2018-11-21T01:24:35.988Z,64.63
2018-11-21T01:27:04.477Z,84.03
2018-11-21T01:29:33.275Z,74.77
2018-11-21T01:32:01.767Z,76.80
2018-11-21T01:34:30.639Z,60.67
2018-11-21T01:36:59.508Z,72.57
2018-11-21T01:39:28.334Z,65.03
2018-11-21T01:41:56.804Z,82.23
2018-11-21T01:44:25.293Z,79.67
2018-11-21T01:46:53.760Z,81.47
2018-11-21T01:49:22.656Z,81.30
2018-11-21T01:51:51.786Z,79.87
2018-11-21T01:54:20.686Z,86.43
2018-11-21T01:56:49.232Z,84.03
2018-11-21T01:59:17.724Z,86.20
2018-11-21T02:01:46.394Z,77.17
2018-11-21T02:04:15.181Z,69.20
2018-11-21T02:06:44.009Z,85.17
2018-11-21T02:09:13.238Z,71.90
2018-11-21T02:11:42.098Z,72.90
2018-11-21T02:14:11.426Z,72.83
2018-11-21T02:16:39.967Z,84.63
2018-11-21T02:19:08.566Z,79.73
2018-11-21T02:21:37.686Z,81.93
2018-11-21T02:24:06.215Z,83.13
2018-11-21T02:26:34.733Z,83.03
2018-11-21T02:29:03.207Z,77.57
2018-11-21T02:31:32.080Z,92.77
2018-11-21T02:34:01.064Z,98.30
2018-11-21T02:36:29.727Z,95.33
2018-11-21T02:38:58.409Z,84.37
2018-11-21T02:41:26.901Z,90.10
2018-11-21T02:43:55.595Z,78.17
2018-11-21T02:46:24.208Z,72.63
2018-11-21T02:48:52.660Z,78.23
2018-11-21T02:51:21.877Z,68.07
2018-11-21T02:53:50.623Z,90.10
2018-11-21T02:56:19.855Z,108.23
2018-11-21T02:58:48.311Z,91.50
2018-11-21T03:01:16.856Z,94.70
2018-11-21T03:03:45.788Z,97.17
2018-11-21T03:06:14.275Z,92.40
2018-11-21T03:08:43.156Z,40.37
2018-11-21T03:11:11.598Z,72.87
2018-11-21T03:13:40.224Z,81.53
2018-11-21T03:16:08.694Z,90.50
2018-11-21T03:18:37.194Z,48.97
2018-11-21T03:21:05.683Z,96.40
2018-11-21T03:23:34.110Z,69.67
2018-11-21T03:26:02.675Z,82.77
2018-11-21T03:28:31.624Z,70.97
2018-11-21T03:31:00.425Z,80.47
2018-11-21T03:33:28.860Z,70.80
2018-11-21T03:35:57.396Z,67.13
2018-11-21T03:38:25.949Z,73.20
2018-11-21T03:40:55.105Z,84.80
2018-11-21T03:43:24.334Z,91.73
2018-11-21T03:45:52.787Z,75.20
2018-11-21T03:48:21.712Z,81.73
2018-11-21T03:50:50.572Z,61.90
2018-11-21T03:53:19.485Z,78.13
2018-11-21T03:55:48.153Z,76.80
2018-11-21T03:58:16.613Z,83.97
2018-11-21T04:00:45.384Z,77.13
2018-11-21T04:03:13.996Z,79.17
2018-11-21T04:05:42.460Z,84.63
2018-11-21T04:08:11.333Z,57.67
2018-11-21T04:10:39.892Z,71.07
2018-11-21T04:13:08.683Z,89.77
2018-11-21T04:15:37.471Z,70.77
2018-11-21T04:18:06.393Z,75.00
2018-11-21T04:20:35.228Z,90.07
2018-11-21T04:23:05.016Z,67.10
2018-11-21T04:25:33.471Z,84.60
2018-11-21T04:28:02.060Z,85.83
2018-11-21T04:30:30.518Z,87.07
2018-11-21T04:32:59.049Z,77.80
2018-11-21T04:35:27.917Z,79.70
2018-11-21T04:37:56.821Z,59.70
2018-11-21T04:40:25.385Z,83.03
2018-11-21T04:42:54.714Z,72.07
2018-11-21T04:45:23.173Z,83.85
2018-11-21T04:47:51.632Z,75.20
2018-11-21T04:50:20.153Z,84.83
2018-11-21T04:52:48.972Z,86.90
2018-11-21T04:55:17.685Z,82.73
2018-11-21T04:57:46.625Z,79.80
2018-11-21T05:00:15.197Z,89.20
2018-11-21T05:02:43.707Z,74.40
2018-11-21T05:05:12.520Z,82.77
2018-11-21T05:07:41.305Z,89.47
2018-11-21T05:10:09.809Z,88.70
2018-11-21T05:12:38.818Z,88.53
2018-11-21T05:15:08.887Z,88.70
2018-11-21T05:17:37.385Z,83.87
2018-11-21T05:20:06.192Z,85.87
2018-11-21T05:22:34.788Z,87.30
2018-11-21T05:25:03.409Z,84.13
2018-11-21T05:27:31.991Z,72.27
2018-11-21T05:30:00.441Z,79.93
2018-11-21T05:32:29.078Z,83.60
2018-11-21T05:34:57.646Z,79.27
2018-11-21T05:37:26.090Z,63.33
2018-11-21T05:39:54.553Z,87.47
2018-11-21T05:42:23.103Z,86.03
2018-11-21T05:44:51.629Z,77.60
2018-11-21T05:47:20.159Z,66.80
2018-11-21T05:49:49.419Z,92.03
2018-11-21T05:52:17.423Z,80.20
2018-11-21T05:54:45.945Z,88.00
2018-11-21T05:57:15.725Z,86.20
2018-11-21T05:59:44.236Z,94.47
2018-11-21T06:02:12.676Z,58.70
2018-11-21T06:04:41.423Z,93.63
2018-11-21T06:07:10.235Z,78.37
2018-11-21T06:09:38.764Z,87.70
2018-11-21T06:12:07.317Z,97.27
2018-11-21T06:14:35.839Z,101.10
2018-11-21T06:17:04.283Z,81.00
2018-11-21T06:19:32.843Z,89.77
2018-11-21T06:22:01.378Z,91.60
2018-11-21T06:24:29.832Z,37.30
2018-11-21T06:27:00.033Z,75.57
2018-11-21T06:29:28.627Z,95.03
2018-11-21T06:31:57.197Z,94.37
2018-11-21T06:34:29.116Z,82.83
2018-11-21T06:36:54.537Z,84.03
2018-11-21T06:39:23.253Z,92.97
2018-11-21T06:41:51.709Z,82.67
2018-11-21T06:44:20.163Z,93.73
2018-11-21T06:46:49.091Z,83.80
2018-11-21T06:49:17.538Z,81.00
2018-11-21T06:51:46.100Z,71.07
2018-11-21T06:54:14.995Z,70.53
2018-11-21T06:56:44.603Z,73.53
2018-11-21T06:59:12.107Z,92.30
2018-11-21T07:01:40.635Z,104.30
2018-11-21T07:04:09.153Z,84.07
2018-11-21T07:06:37.621Z,94.37
2018-11-21T07:09:10.513Z,92.57
2018-11-21T07:11:40.325Z,77.57
2018-11-21T07:14:09.167Z,95.07
2018-11-21T07:16:38.734Z,87.53
2018-11-21T07:19:07.231Z,93.17
2018-11-21T07:21:36.123Z,98.63
2018-11-21T07:24:04.963Z,83.93
2018-11-21T07:26:33.835Z,93.87
2018-11-21T07:29:02.393Z,74.07
2018-11-21T07:31:30.922Z,76.73
2018-11-21T07:33:59.494Z,93.70
2018-11-21T07:36:28.092Z,87.57
2018-11-21T07:38:56.552Z,99.00
2018-11-21T07:41:25.033Z,72.77
2018-11-21T07:43:54.479Z,81.67
2018-11-21T07:46:22.954Z,73.27
2018-11-21T07:48:51.425Z,94.00
2018-11-21T07:51:20.214Z,96.17
2018-11-21T07:53:48.747Z,78.57
2018-11-21T07:56:54.645Z,80.77
2018-11-21T07:59:23.298Z,71.90
2018-11-21T08:02:10.791Z,77.47
2018-11-21T08:04:52.401Z,89.47
2018-11-21T08:07:51.743Z,96.77
2018-11-21T08:10:48.614Z,75.10
2018-11-21T08:13:35.052Z,78.17
2018-11-21T08:16:22.590Z,100.03
2018-11-21T08:19:10.083Z,92.03
2018-11-21T08:22:12.729Z,88.03
2018-11-21T08:25:00.656Z,94.30
2018-11-21T08:27:46.542Z,74.43
2018-11-21T08:30:15.068Z,93.47
2018-11-21T08:32:44.431Z,74.53
2018-11-21T08:35:12.075Z,92.67
2018-11-21T08:37:40.868Z,77.83
2018-11-21T08:40:09.380Z,53.97
2018-11-21T08:42:37.823Z,87.77
2018-11-21T08:45:06.924Z,90.53
2018-11-21T08:47:35.509Z,96.43
2018-11-21T08:50:04.415Z,89.00
2018-11-21T08:52:33.118Z,71.83
2018-11-21T08:55:01.585Z,94.30
2018-11-21T08:57:30.030Z,86.77
2018-11-21T08:59:58.554Z,82.37
2018-11-21T09:02:27.206Z,92.50
2018-11-21T09:04:55.788Z,82.93
2018-11-21T09:07:24.753Z,93.47
2018-11-21T09:09:53.219Z,84.80
2018-11-21T09:12:21.843Z,81.10
2018-11-21T09:14:50.336Z,81.97
2018-11-21T09:17:18.866Z,81.33
2018-11-21T09:19:47.287Z,78.43
2018-11-21T09:22:15.958Z,48.83
2018-11-21T09:24:44.538Z,85.83
2018-11-21T09:27:13.047Z,56.70
2018-11-21T09:29:41.534Z,79.43
2018-11-21T09:32:09.981Z,96.20
2018-11-21T09:34:38.522Z,84.33
2018-11-21T09:37:06.950Z,87.73
2018-11-21T09:39:35.405Z,90.50
2018-11-21T09:42:03.915Z,83.35
2018-11-21T09:44:33.301Z,85.17
2018-11-21T09:47:01.819Z,95.13
2018-11-21T09:49:30.685Z,78.43
2018-11-21T09:51:59.204Z,89.83
2018-11-21T09:54:28.045Z,85.90
2018-11-21T09:56:57.181Z,82.83
2018-11-21T09:59:25.626Z,63.07
2018-11-21T10:02:30.085Z,71.07
2018-11-21T10:04:58.882Z,87.70
2018-11-21T10:07:27.328Z,80.43
2018-11-21T10:09:56.148Z,75.00
2018-11-21T10:12:24.932Z,71.33
2018-11-21T10:14:53.550Z,76.10
2018-11-21T10:17:22.009Z,69.83
2018-11-21T10:19:50.809Z,68.77
2018-11-21T10:22:19.332Z,81.90
2018-11-21T10:24:48.157Z,85.60
2018-11-21T10:27:17.046Z,64.93
2018-11-21T10:29:45.505Z,87.73
2018-11-21T10:32:13.977Z,72.83
2018-11-21T10:34:42.551Z,84.60
2018-11-21T10:37:11.046Z,69.33
2018-11-21T10:39:39.542Z,77.07
2018-11-21T10:42:08.057Z,66.10
2018-11-21T10:44:36.509Z,76.57
2018-11-21T10:47:05.471Z,78.03
2018-11-21T10:49:33.944Z,61.00
2018-11-21T10:52:02.395Z,78.63
2018-11-21T10:54:30.859Z,73.10
2018-11-21T10:56:59.667Z,76.43
2018-11-21T10:59:28.184Z,63.70
2018-11-21T11:02:13.879Z,64.27
2018-11-21T11:04:47.179Z,76.07
2018-11-21T11:07:36.171Z,74.60
2018-11-21T11:10:19.437Z,68.87
2018-11-21T11:13:18.586Z,75.93
2018-11-21T11:16:04.556Z,78.43
2018-11-21T11:19:07.069Z,78.43
2018-11-21T11:21:53.187Z,68.27
2018-11-21T11:24:55.677Z,71.40
2018-11-21T11:27:41.711Z,77.00
2018-11-21T11:30:19.483Z,73.27
2018-11-21T11:33:05.439Z,68.90
2018-11-21T11:35:51.816Z,65.20
2018-11-21T11:38:47.982Z,64.97
2018-11-21T11:41:50.366Z,71.03
2018-11-21T11:44:36.394Z,76.97
2018-11-21T11:47:41.880Z,67.67
2018-11-21T11:50:29.454Z,73.63
2018-11-21T11:53:29.017Z,76.10
2018-11-21T11:56:15.482Z,75.60
2018-11-21T11:59:02.065Z,72.37
2018-11-21T12:01:49.815Z,76.03
2018-11-21T12:04:32.608Z,78.10
2018-11-21T12:07:20.179Z,66.43
2018-11-21T12:10:16.476Z,75.53
2018-11-21T12:13:03.039Z,51.10
2018-11-21T12:15:48.825Z,64.80
2018-11-21T12:18:39.275Z,62.00
2018-11-21T12:21:29.547Z,67.50
2018-11-21T12:24:10.295Z,61.40
2018-11-21T12:26:48.369Z,73.80
2018-11-21T12:29:36.508Z,60.50
2018-11-21T12:32:33.448Z,66.33
2018-11-21T12:35:16.592Z,65.13
2018-11-21T12:38:18.944Z,62.53
2018-11-21T12:41:00.320Z,61.33
2018-11-21T12:43:46.455Z,61.60
2018-11-21T12:46:42.642Z,57.43
2018-11-21T12:49:30.657Z,56.63
2018-11-21T12:52:16.701Z,69.43
2018-11-21T12:55:22.525Z,44.03
2018-11-21T12:58:13.110Z,45.23
2018-11-21T13:00:58.286Z,55.73
2018-11-21T13:03:44.012Z,59.23
2018-11-21T13:06:31.670Z,60.70
2018-11-21T13:09:17.987Z,60.83
2018-11-21T13:12:04.102Z,63.10
2018-11-21T13:14:43.593Z,69.60
2018-11-21T13:17:30.130Z,60.83
2018-11-21T13:20:08.056Z,61.60
2018-11-21T13:23:01.652Z,66.27
2018-11-21T13:25:51.774Z,51.23
2018-11-21T13:28:41.172Z,57.43
2018-11-21T13:31:40.829Z,62.13
2018-11-21T13:34:32.171Z,62.27
2018-11-21T13:37:18.343Z,63.70
2018-11-21T13:40:07.216Z,63.23
2018-11-21T13:42:54.778Z,60.80
2018-11-21T13:46:00.137Z,60.13
2018-11-21T13:48:39.856Z,58.33
2018-11-21T13:51:25.920Z,61.00
2018-11-21T13:54:19.441Z,56.20
2018-11-21T13:56:48.917Z,60.67
2018-11-21T13:59:17.442Z,52.63
2018-11-21T14:01:45.947Z,64.00
2018-11-21T14:04:14.491Z,61.80
2018-11-21T14:06:42.936Z,59.10
2018-11-21T14:09:12.684Z,69.13
2018-11-21T14:11:41.623Z,62.03
2018-11-21T14:14:10.433Z,72.77
2018-11-21T14:16:39.205Z,62.10
2018-11-21T14:19:07.898Z,64.50
2018-11-21T14:21:36.659Z,47.43
2018-11-21T14:24:05.266Z,63.90
2018-11-21T14:26:34.113Z,55.53
2018-11-21T14:29:02.567Z,59.67
2018-11-21T14:31:31.168Z,67.13
2018-11-21T14:33:59.984Z,56.07
2018-11-21T14:36:28.651Z,46.37
2018-11-21T14:38:57.152Z,56.90
2018-11-21T14:41:26.075Z,75.13
2018-11-21T14:43:54.607Z,75.73
2018-11-21T14:46:23.074Z,80.07
2018-11-21T14:48:51.720Z,79.63
2018-11-21T14:51:20.808Z,82.10
2018-11-21T14:53:49.324Z,80.70
2018-11-21T14:56:17.814Z,80.63
2018-11-21T14:58:46.295Z,64.70
2018-11-21T15:01:15.148Z,80.17
2018-11-21T15:03:43.633Z,76.23
2018-11-21T15:06:12.522Z,67.50
2018-11-21T15:08:40.971Z,67.50
2018-11-21T15:11:09.467Z,66.67
2018-11-21T15:13:38.323Z,77.80
2018-11-21T15:16:06.870Z,64.33
2018-11-21T15:18:35.423Z,69.00
2018-11-21T15:21:04.096Z,64.87
2018-11-21T15:23:32.628Z,56.43
2018-11-21T15:26:01.678Z,65.08
2018-11-21T15:28:30.539Z,76.73
2018-11-21T15:30:59.259Z,76.57
2018-11-21T15:33:28.407Z,65.53
2018-11-21T15:35:56.890Z,74.73
2018-11-21T15:38:25.733Z,50.60
2018-11-21T15:40:54.289Z,80.87
2018-11-21T15:43:22.736Z,88.93
2018-11-21T15:45:51.305Z,71.93
2018-11-21T15:48:19.869Z,65.47
2018-11-21T15:50:48.769Z,81.77
2018-11-21T15:53:17.279Z,70.20
2018-11-21T15:55:45.915Z,84.93
2018-11-21T15:58:14.835Z,88.80
2018-11-21T16:00:43.345Z,61.60
2018-11-21T16:03:12.307Z,76.23
2018-11-21T16:05:40.885Z,89.63
2018-11-21T16:08:09.505Z,80.57
2018-11-21T16:10:42.902Z,85.17
2018-11-21T16:13:11.956Z,75.00
2018-11-21T16:15:45.684Z,87.90
2018-11-21T16:18:14.680Z,89.47
2018-11-21T16:20:43.175Z,69.60
2018-11-21T16:23:13.303Z,87.57
2018-11-21T16:25:42.214Z,94.67
2018-11-21T16:28:10.725Z,104.83
2018-11-21T16:30:39.528Z,66.20
2018-11-21T16:33:08.003Z,78.57
2018-11-21T16:35:36.549Z,103.47
2018-11-21T16:38:05.180Z,82.67
2018-11-21T16:40:34.624Z,101.90
2018-11-21T16:43:03.126Z,81.93
2018-11-21T16:45:33.484Z,69.07
2018-11-21T16:48:01.974Z,79.40
2018-11-21T16:50:30.573Z,105.80
2018-11-21T16:52:59.399Z,117.37
2018-11-21T16:55:28.387Z,98.80
2018-11-21T16:57:57.737Z,119.67
2018-11-21T17:00:27.674Z,74.93
2018-11-21T17:02:56.688Z,105.83
2018-11-21T17:05:26.210Z,122.30
2018-11-21T17:07:55.181Z,96.47
2018-11-21T17:10:25.493Z,102.20
2018-11-21T17:12:54.166Z,133.00
2018-11-21T17:15:27.823Z,106.50
2018-11-21T17:17:56.949Z,140.97
2018-11-21T17:20:30.560Z,128.60
2018-11-21T17:23:00.263Z,128.50
2018-11-21T17:25:30.691Z,123.90
2018-11-21T17:27:59.259Z,128.77
2018-11-21T17:30:28.063Z,139.60
2018-11-21T17:32:56.637Z,119.97
2018-11-21T17:35:25.443Z,123.80
2018-11-21T17:37:54.947Z,131.93
2018-11-21T17:40:29.300Z,135.43
2018-11-21T17:42:58.491Z,141.63
2018-11-21T17:45:27.005Z,117.43
2018-11-21T17:47:55.522Z,108.00
2018-11-21T17:50:25.201Z,142.50
2018-11-21T17:52:55.619Z,117.00
2018-11-21T17:55:25.929Z,114.70
2018-11-21T17:57:54.408Z,126.53
2018-11-21T18:00:24.446Z,124.90
2018-11-21T18:02:52.904Z,84.83
2018-11-21T18:05:23.260Z,110.55
2018-11-21T18:07:51.769Z,126.13
2018-11-21T18:10:22.214Z,108.70
2018-11-21T18:12:50.735Z,117.13
2018-11-21T18:15:19.837Z,128.77
2018-11-21T18:17:49.155Z,126.53
2018-11-21T18:20:18.463Z,130.03
2018-11-21T18:22:47.857Z,139.33
2018-11-21T18:25:17.976Z,115.43
2018-11-21T18:27:46.517Z,102.50
2018-11-21T18:30:17.040Z,89.97
2018-11-21T18:32:47.048Z,116.33
2018-11-21T18:35:17.540Z,118.17
2018-11-21T18:37:46.881Z,121.03
2018-11-21T18:40:22.543Z,91.55
2018-11-21T18:42:51.645Z,118.37
2018-11-21T18:45:22.922Z,106.50
2018-11-21T18:47:52.317Z,108.87
2018-11-21T18:50:21.451Z,121.70
2018-11-21T18:52:51.937Z,128.33
2018-11-21T18:55:22.595Z,119.77
2018-11-21T18:58:18.224Z,110.87
2018-11-21T19:00:51.792Z,111.63
